createdAt,value
2018-08-11T00:01:09.727Z,92.10
2018-08-11T00:03:38.195Z,92.20
2018-08-11T00:06:06.776Z,92.40
2018-08-11T00:08:35.224Z,92.50
2018-08-11T00:11:03.695Z,92.70
2018-08-11T00:13:32.210Z,92.70
2018-08-11T00:16:00.680Z,92.60
2018-08-11T00:18:29.122Z,92.80
2018-08-11T00:20:57.561Z,92.90
2018-08-11T00:23:26.058Z,93.00
2018-08-11T00:25:54.497Z,93.00
2018-08-11T00:28:22.948Z,93.10
2018-08-11T00:30:51.376Z,93.20
2018-08-11T00:33:19.856Z,93.10
2018-08-11T00:35:48.350Z,93.20
2018-08-11T00:38:16.782Z,93.30
2018-08-11T00:40:45.215Z,93.30
2018-08-11T00:43:13.686Z,93.40
2018-08-11T00:45:42.124Z,93.30
2018-08-11T00:48:10.567Z,93.40
2018-08-11T00:50:39.052Z,93.30
2018-08-11T00:53:07.678Z,93.10
2018-08-11T00:55:36.119Z,93.20
2018-08-11T00:58:04.691Z,93.50
2018-08-11T01:00:33.114Z,93.60
2018-08-11T01:03:01.658Z,93.70
2018-08-11T01:05:30.118Z,93.80
2018-08-11T01:07:58.546Z,93.70
2018-08-11T01:10:26.987Z,93.60
2018-08-11T01:12:55.466Z,93.80
2018-08-11T01:15:23.915Z,94.20
2018-08-11T01:17:52.808Z,94.00
2018-08-11T01:20:21.248Z,94.20
2018-08-11T01:22:50.263Z,94.20
2018-08-11T01:25:18.759Z,94.10
2018-08-11T01:27:47.187Z,94.10
2018-08-11T01:30:18.598Z,94.20
2018-08-11T01:32:47.131Z,94.00
2018-08-11T01:35:15.570Z,93.70
2018-08-11T01:37:44.588Z,93.50
2018-08-11T01:40:14.238Z,93.40
2018-08-11T01:42:43.967Z,93.50
2018-08-11T01:45:13.235Z,93.70
2018-08-11T01:47:42.036Z,93.60
2018-08-11T01:50:11.874Z,93.70
2018-08-11T01:52:41.859Z,93.70
2018-08-11T01:55:11.308Z,93.70
2018-08-11T01:57:40.049Z,93.80
2018-08-11T02:00:10.597Z,93.80
2018-08-11T02:02:39.497Z,93.80
2018-08-11T02:05:08.900Z,93.90
2018-08-11T02:07:37.893Z,93.80
2018-08-11T02:10:08.279Z,93.70
2018-08-11T02:12:37.802Z,93.90
2018-08-11T02:15:08.427Z,93.90
2018-08-11T02:17:37.148Z,93.80
2018-08-11T02:20:07.479Z,93.80
2018-08-11T02:22:36.033Z,94.00
2018-08-11T02:25:05.478Z,94.00
2018-08-11T02:27:33.912Z,93.80
2018-08-11T02:30:02.725Z,93.70
2018-08-11T02:32:31.247Z,93.80
2018-08-11T02:34:59.698Z,93.90
2018-08-11T02:37:28.127Z,93.80
2018-08-11T02:39:56.568Z,93.70
2018-08-11T02:42:25.050Z,93.60
2018-08-11T02:44:53.521Z,93.60
2018-08-11T02:47:21.950Z,93.60
2018-08-11T02:49:50.480Z,93.60
2018-08-11T02:52:19.046Z,93.70
2018-08-11T02:54:47.555Z,93.60
2018-08-11T02:57:15.975Z,93.60
2018-08-11T02:59:44.392Z,93.60
2018-08-11T03:02:12.960Z,93.60
2018-08-11T03:04:41.498Z,93.60
2018-08-11T03:07:09.906Z,93.60
2018-08-11T03:09:38.332Z,93.60
2018-08-11T03:12:06.886Z,93.60
2018-08-11T03:14:35.343Z,93.60
2018-08-11T03:17:03.759Z,93.70
2018-08-11T03:19:32.213Z,93.60
2018-08-11T03:22:00.660Z,93.70
2018-08-11T03:24:29.083Z,94.10
2018-08-11T03:26:57.580Z,94.10
2018-08-11T03:29:26.027Z,94.10
2018-08-11T03:31:54.447Z,93.90
2018-08-11T03:34:22.899Z,93.60
2018-08-11T03:36:51.333Z,93.50
2018-08-11T03:39:19.812Z,93.50
2018-08-11T03:41:49.261Z,93.50
2018-08-11T03:44:17.725Z,93.60
2018-08-11T03:46:46.162Z,93.50
2018-08-11T03:49:14.579Z,93.60
2018-08-11T03:51:43.037Z,93.60
2018-08-11T03:54:13.487Z,93.70
2018-08-11T03:56:41.995Z,93.60
2018-08-11T03:59:10.438Z,93.70
2018-08-11T04:01:38.882Z,93.90
2018-08-11T04:04:07.349Z,93.90
2018-08-11T04:06:35.829Z,93.90
2018-08-11T04:09:06.058Z,94.00
2018-08-11T04:11:34.495Z,93.90
2018-08-11T04:14:02.978Z,93.40
2018-08-11T04:16:31.419Z,93.20
2018-08-11T04:18:59.859Z,93.50
2018-08-11T04:21:28.292Z,93.10
2018-08-11T04:23:56.823Z,93.20
2018-08-11T04:26:25.256Z,93.20
2018-08-11T04:28:53.700Z,93.30
2018-08-11T04:31:22.211Z,93.20
2018-08-11T04:33:50.662Z,93.30
2018-08-11T04:36:19.120Z,93.40
2018-08-11T04:38:47.536Z,93.40
2018-08-11T04:41:15.991Z,93.20
2018-08-11T04:43:44.532Z,93.20
2018-08-11T04:46:13.047Z,93.20
2018-08-11T04:48:41.532Z,93.20
2018-08-11T04:51:09.987Z,93.10
2018-08-11T04:53:38.537Z,92.90
2018-08-11T04:56:06.973Z,92.80
2018-08-11T04:58:35.385Z,93.00
2018-08-11T05:01:03.838Z,92.90
2018-08-11T05:03:32.363Z,92.80
2018-08-11T05:06:00.869Z,92.80
2018-08-11T05:08:29.287Z,92.90
2018-08-11T05:10:57.832Z,92.70
2018-08-11T05:13:26.405Z,92.60
2018-08-11T05:15:54.830Z,92.70
2018-08-11T05:18:23.262Z,92.60
2018-08-11T05:20:51.680Z,92.60
2018-08-11T05:23:20.370Z,92.40
2018-08-11T05:25:48.832Z,92.30
2018-08-11T05:28:17.234Z,92.40
2018-08-11T05:30:45.663Z,92.30
2018-08-11T05:33:14.146Z,92.30
2018-08-11T05:35:42.544Z,92.30
2018-08-11T05:38:10.990Z,92.40
2018-08-11T05:40:39.422Z,92.30
2018-08-11T05:43:07.937Z,92.50
2018-08-11T05:45:36.374Z,92.20
2018-08-11T05:48:05.131Z,92.20
2018-08-11T05:50:33.565Z,92.10
2018-08-11T05:53:02.086Z,91.90
2018-08-11T05:55:30.796Z,91.90
2018-08-11T05:58:10.341Z,91.80
2018-08-11T06:00:38.769Z,91.60
2018-08-11T06:03:07.392Z,92.20
2018-08-11T06:05:35.822Z,91.70
2018-08-11T06:08:04.246Z,91.70
2018-08-11T06:10:32.787Z,91.60
2018-08-11T06:13:01.158Z,91.50
2018-08-11T06:15:29.592Z,91.20
2018-08-11T06:17:58.042Z,91.20
2018-08-11T06:20:26.515Z,90.60
2018-08-11T06:22:55.012Z,90.40
2018-08-11T06:25:23.452Z,90.50
2018-08-11T06:27:51.906Z,90.40
2018-08-11T06:30:20.332Z,90.00
2018-08-11T06:32:48.855Z,88.60
2018-08-11T06:35:17.282Z,88.50
2018-08-11T06:37:45.719Z,88.00
2018-08-11T06:40:14.152Z,88.40
2018-08-11T06:42:42.649Z,88.80
2018-08-11T06:45:11.109Z,88.50
2018-08-11T06:47:39.614Z,87.90
2018-08-11T06:50:08.194Z,87.70
2018-08-11T06:52:36.688Z,86.50
2018-08-11T06:55:05.140Z,86.50
2018-08-11T06:57:33.591Z,86.20
2018-08-11T07:00:02.009Z,85.70
2018-08-11T07:02:30.494Z,85.60
2018-08-11T07:04:58.937Z,86.20
2018-08-11T07:07:27.386Z,85.70
2018-08-11T07:09:55.826Z,84.60
2018-08-11T07:12:24.365Z,84.80
2018-08-11T07:14:52.826Z,84.20
2018-08-11T07:17:21.268Z,84.20
2018-08-11T07:19:49.726Z,84.10
2018-08-11T07:22:18.157Z,83.80
2018-08-11T07:24:46.574Z,83.80
2018-08-11T07:27:15.068Z,83.80
2018-08-11T07:29:43.512Z,82.90
2018-08-11T07:32:12.068Z,81.90
2018-08-11T07:34:40.547Z,82.10
2018-08-11T07:37:09.102Z,82.30
2018-08-11T07:39:37.553Z,81.90
2018-08-11T07:42:06.047Z,80.50
2018-08-11T07:44:34.564Z,80.30
2018-08-11T07:47:03.068Z,80.00
2018-08-11T07:49:31.483Z,79.10
2018-08-11T07:51:59.918Z,79.80
2018-08-11T07:54:28.440Z,79.50
2018-08-11T07:56:56.954Z,78.20
2018-08-11T07:59:25.406Z,78.10
2018-08-11T08:01:53.815Z,78.20
2018-08-11T08:04:22.258Z,78.20
2018-08-11T08:06:50.682Z,78.80
2018-08-11T08:09:19.131Z,79.50
2018-08-11T08:11:47.541Z,79.50
2018-08-11T08:14:16.084Z,79.40
2018-08-11T08:16:44.526Z,77.90
2018-08-11T08:19:12.945Z,76.50
2018-08-11T08:21:41.411Z,77.00
2018-08-11T08:24:09.901Z,76.50
2018-08-11T08:26:38.472Z,77.80
2018-08-11T08:29:06.872Z,77.70
2018-08-11T08:31:35.334Z,77.10
2018-08-11T08:34:03.872Z,76.60
2018-08-11T08:36:32.402Z,77.00
2018-08-11T08:39:00.940Z,77.20
2018-08-11T08:41:29.378Z,77.50
2018-08-11T08:43:57.882Z,76.30
2018-08-11T08:46:26.299Z,75.00
2018-08-11T08:48:54.775Z,74.30
2018-08-11T08:51:23.213Z,74.70
2018-08-11T08:53:51.706Z,75.60
2018-08-11T08:56:20.156Z,74.60
2018-08-11T08:58:48.610Z,74.30
2018-08-11T09:01:17.045Z,74.90
2018-08-11T09:03:45.538Z,75.30
2018-08-11T09:06:14.027Z,75.80
2018-08-11T09:08:42.470Z,75.00
2018-08-11T09:11:10.925Z,74.30
2018-08-11T09:13:39.501Z,74.50
2018-08-11T09:16:07.966Z,73.10
2018-08-11T09:18:36.395Z,73.60
2018-08-11T09:21:04.799Z,72.10
2018-08-11T09:23:33.326Z,70.50
2018-08-11T09:26:01.744Z,70.70
2018-08-11T09:28:30.202Z,68.90
2018-08-11T09:30:58.655Z,69.80
2018-08-11T09:33:27.142Z,70.50
2018-08-11T09:35:55.632Z,70.50
2018-08-11T09:38:24.111Z,70.90
2018-08-11T09:40:52.514Z,71.60
2018-08-11T09:43:21.016Z,72.00
2018-08-11T09:45:49.555Z,71.40
2018-08-11T09:48:17.956Z,71.20
2018-08-11T09:50:46.395Z,71.20
2018-08-11T09:53:14.980Z,71.30
2018-08-11T09:55:43.459Z,70.50
2018-08-11T09:58:11.896Z,70.40
2018-08-11T10:00:45.674Z,69.20
2018-08-11T10:03:14.208Z,68.90
2018-08-11T10:05:42.628Z,68.60
2018-08-11T10:08:11.091Z,70.40
2018-08-11T10:10:39.569Z,69.10
2018-08-11T10:13:08.062Z,69.00
2018-08-11T10:15:36.538Z,69.40
2018-08-11T10:18:04.975Z,68.90
2018-08-11T10:20:33.423Z,69.50
2018-08-11T10:23:01.950Z,69.60
2018-08-11T10:25:30.444Z,69.90
2018-08-11T10:27:58.887Z,69.20
2018-08-11T10:30:27.407Z,68.30
2018-08-11T10:32:55.946Z,68.20
2018-08-11T10:35:24.364Z,68.40
2018-08-11T10:37:52.820Z,68.00
2018-08-11T10:40:21.333Z,67.30
2018-08-11T10:42:49.683Z,66.50
2018-08-11T10:45:18.304Z,66.60
2018-08-11T10:47:47.036Z,66.70
2018-08-11T10:50:15.558Z,67.60
2018-08-11T10:52:44.079Z,66.10
2018-08-11T10:55:12.504Z,66.20
2018-08-11T10:57:40.981Z,65.20
2018-08-11T11:00:09.466Z,64.50
2018-08-11T11:02:39.219Z,65.10
2018-08-11T11:05:07.943Z,65.30
2018-08-11T11:07:36.535Z,65.20
2018-08-11T11:10:05.435Z,65.00
2018-08-11T11:12:33.960Z,64.20
2018-08-11T11:15:02.392Z,64.70
2018-08-11T11:17:30.828Z,65.30
2018-08-11T11:19:59.306Z,65.50
2018-08-11T11:22:27.786Z,65.30
2018-08-11T11:24:56.218Z,64.80
2018-08-11T11:27:24.671Z,64.30
2018-08-11T11:29:53.126Z,63.60
2018-08-11T11:32:21.636Z,63.30
2018-08-11T11:34:50.067Z,63.40
2018-08-11T11:37:18.537Z,63.30
2018-08-11T11:39:46.967Z,62.80
2018-08-11T11:42:15.561Z,61.30
2018-08-11T11:44:43.995Z,60.80
2018-08-11T11:47:12.427Z,61.00
2018-08-11T11:49:40.979Z,61.40
2018-08-11T11:52:09.443Z,60.30
2018-08-11T11:54:37.912Z,60.50
2018-08-11T11:57:06.894Z,58.80
2018-08-11T11:59:35.329Z,59.60
2018-08-11T12:02:04.024Z,59.00
2018-08-11T12:04:32.423Z,57.00
2018-08-11T12:07:00.889Z,56.60
2018-08-11T12:09:29.394Z,57.10
2018-08-11T12:11:57.978Z,57.40
2018-08-11T12:14:26.408Z,57.00
2018-08-11T12:16:54.866Z,58.80
2018-08-11T12:19:23.332Z,57.50
2018-08-11T12:21:51.768Z,56.80
2018-08-11T12:24:20.262Z,57.00
2018-08-11T12:26:48.718Z,56.60
2018-08-11T12:29:17.146Z,56.60
2018-08-11T12:31:45.556Z,57.20
2018-08-11T12:34:14.087Z,57.00
2018-08-11T12:36:42.560Z,56.90
2018-08-11T12:39:11.614Z,56.30
2018-08-11T12:41:40.862Z,55.00
2018-08-11T12:44:09.790Z,54.30
2018-08-11T12:46:38.258Z,54.20
2018-08-11T12:49:06.825Z,53.90
2018-08-11T12:51:35.524Z,53.40
2018-08-11T12:54:04.106Z,52.20
2018-08-11T12:56:32.563Z,51.80
2018-08-11T12:59:01.168Z,50.60
2018-08-11T13:01:29.694Z,49.80
2018-08-11T13:03:58.353Z,50.20
2018-08-11T13:06:26.781Z,50.90
2018-08-11T13:08:55.276Z,50.10
2018-08-11T13:11:23.744Z,50.20
2018-08-11T13:13:52.236Z,50.20
2018-08-11T13:16:20.787Z,50.50
2018-08-11T13:18:49.403Z,51.30
2018-08-11T13:21:17.875Z,50.90
2018-08-11T13:23:46.592Z,51.20
2018-08-11T13:26:15.099Z,50.80
2018-08-11T13:28:43.580Z,50.60
2018-08-11T13:31:12.027Z,49.70
2018-08-11T13:33:40.543Z,49.30
2018-08-11T13:36:08.982Z,48.20
2018-08-11T13:38:37.534Z,47.50
2018-08-11T13:41:05.963Z,47.90
2018-08-11T13:43:34.418Z,47.30
2018-08-11T13:46:02.871Z,48.00
2018-08-11T13:48:31.527Z,49.20
2018-08-11T13:50:59.989Z,48.60
2018-08-11T13:53:28.451Z,48.20
2018-08-11T13:55:56.948Z,48.80
2018-08-11T13:58:25.396Z,49.40
2018-08-11T14:00:53.818Z,51.90
2018-08-11T14:03:22.414Z,51.50
2018-08-11T14:05:50.855Z,51.50
2018-08-11T14:08:19.580Z,51.00
2018-08-11T14:10:48.038Z,50.70
2018-08-11T14:13:16.543Z,50.50
2018-08-11T14:15:44.970Z,50.50
2018-08-11T14:18:13.422Z,50.20
2018-08-11T14:20:41.971Z,51.20
2018-08-11T14:23:10.476Z,51.50
2018-08-11T14:25:39.008Z,51.60
2018-08-11T14:28:07.719Z,52.20
2018-08-11T14:30:36.177Z,51.70
2018-08-11T14:33:04.665Z,52.00
2018-08-11T14:35:33.102Z,52.80
2018-08-11T14:38:01.735Z,53.10
2018-08-11T14:40:30.160Z,53.50
2018-08-11T14:42:58.735Z,53.00
2018-08-11T14:45:27.224Z,51.70
2018-08-11T14:47:55.705Z,50.80
2018-08-11T14:50:24.181Z,50.40
2018-08-11T14:52:52.780Z,49.50
2018-08-11T14:55:21.274Z,50.10
2018-08-11T14:57:49.743Z,50.20
2018-08-11T15:00:18.256Z,50.20
2018-08-11T15:02:46.816Z,51.60
2018-08-11T15:05:15.248Z,52.00
2018-08-11T15:07:44.088Z,51.60
2018-08-11T15:10:12.671Z,51.40
2018-08-11T15:12:41.124Z,50.80
2018-08-11T15:15:10.663Z,50.50
2018-08-11T15:17:39.873Z,50.30
2018-08-11T15:20:08.976Z,50.40
2018-08-11T15:22:37.607Z,50.70
2018-08-11T15:25:06.538Z,50.70
2018-08-11T15:27:35.000Z,51.40
2018-08-11T15:30:03.646Z,51.90
2018-08-11T15:32:32.156Z,51.50
2018-08-11T15:35:00.657Z,50.20
2018-08-11T15:37:29.112Z,49.70
2018-08-11T15:39:57.574Z,49.80
2018-08-11T15:42:26.063Z,49.60
2018-08-11T15:44:54.536Z,49.40
2018-08-11T15:47:23.008Z,49.80
2018-08-11T15:49:51.524Z,49.20
2018-08-11T15:52:20.038Z,49.30
2018-08-11T15:54:48.496Z,49.40
2018-08-11T15:57:16.978Z,48.90
2018-08-11T15:59:45.524Z,48.70
2018-08-11T16:02:14.024Z,48.40
2018-08-11T16:04:42.549Z,50.10
2018-08-11T16:07:11.007Z,51.00
2018-08-11T16:09:39.514Z,50.60
2018-08-11T16:12:08.070Z,50.60
2018-08-11T16:14:36.527Z,50.50
2018-08-11T16:17:05.898Z,51.00
2018-08-11T16:19:34.396Z,51.20
2018-08-11T16:22:02.876Z,51.30
2018-08-11T16:24:31.306Z,51.50
2018-08-11T16:26:59.781Z,52.40
2018-08-11T16:29:28.309Z,52.10
2018-08-11T16:31:56.726Z,52.30
2018-08-11T16:34:25.175Z,52.70
2018-08-11T16:36:53.714Z,53.20
2018-08-11T16:39:22.231Z,53.00
2018-08-11T16:41:50.615Z,53.30
2018-08-11T16:44:19.149Z,52.70
2018-08-11T16:46:47.634Z,53.30
2018-08-11T16:49:16.127Z,53.00
2018-08-11T16:51:44.617Z,53.10
2018-08-11T16:54:13.176Z,52.90
2018-08-11T16:56:41.667Z,52.70
2018-08-11T16:59:10.164Z,52.50
2018-08-11T17:01:38.601Z,53.00
2018-08-11T17:04:07.179Z,53.40
2018-08-11T17:06:35.624Z,54.30
2018-08-11T17:09:06.603Z,54.50
2018-08-11T17:11:35.052Z,54.40
2018-08-11T17:14:03.627Z,54.50
2018-08-11T17:16:32.122Z,54.30
2018-08-11T17:19:00.606Z,54.00
2018-08-11T17:21:30.213Z,54.10
2018-08-11T17:23:59.011Z,54.20
2018-08-11T17:26:27.490Z,54.20
2018-08-11T17:28:56.071Z,54.30
2018-08-11T17:31:24.579Z,54.40
2018-08-11T17:33:53.138Z,54.70
2018-08-11T17:36:21.742Z,55.00
2018-08-11T17:38:50.393Z,55.00
2018-08-11T17:41:18.796Z,54.70
2018-08-11T17:43:47.578Z,54.60
2018-08-11T17:46:16.187Z,54.50
2018-08-11T17:48:44.760Z,54.50
2018-08-11T17:51:13.306Z,55.00
2018-08-11T17:53:41.915Z,54.60
2018-08-11T17:56:11.671Z,54.50
2018-08-11T17:58:40.120Z,54.20
2018-08-11T18:01:08.877Z,54.20
2018-08-11T18:03:37.412Z,54.20
2018-08-11T18:06:05.983Z,54.00
2018-08-11T18:08:34.633Z,54.10
2018-08-11T18:11:03.059Z,54.40
2018-08-11T18:13:31.565Z,55.00
2018-08-11T18:16:00.182Z,55.20
2018-08-11T18:18:28.676Z,54.90
2018-08-11T18:20:57.379Z,54.50
2018-08-11T18:23:25.863Z,54.40
2018-08-11T18:25:54.357Z,54.50
2018-08-11T18:28:22.818Z,54.50
2018-08-11T18:30:51.284Z,55.10
2018-08-11T18:33:19.836Z,55.50
2018-08-11T18:35:48.302Z,55.80
2018-08-11T18:38:16.755Z,56.20
2018-08-11T18:40:45.212Z,56.30
2018-08-11T18:43:13.833Z,55.90
2018-08-11T18:45:42.366Z,56.30
2018-08-11T18:48:10.815Z,56.60
2018-08-11T18:50:39.291Z,56.60
2018-08-11T18:53:07.883Z,56.80
2018-08-11T18:55:36.310Z,56.90
2018-08-11T18:58:04.776Z,57.00
2018-08-11T19:00:33.211Z,57.10
2018-08-11T19:03:01.714Z,57.30
2018-08-11T19:05:30.177Z,57.50
2018-08-11T19:07:58.656Z,57.90
2018-08-11T19:10:27.135Z,58.50
2018-08-11T19:12:55.630Z,58.40
2018-08-11T19:15:24.042Z,58.40
2018-08-11T19:17:52.481Z,58.70
2018-08-11T19:20:20.899Z,59.10
2018-08-11T19:22:49.339Z,59.50
2018-08-11T19:25:17.756Z,59.70
2018-08-11T19:27:46.197Z,60.00
2018-08-11T19:30:14.685Z,60.30
2018-08-11T19:32:43.325Z,60.50
2018-08-11T19:35:11.657Z,60.50
2018-08-11T19:37:40.159Z,61.40
2018-08-11T19:40:09.168Z,61.20
2018-08-11T19:42:37.730Z,61.40
2018-08-11T19:45:08.415Z,61.60
2018-08-11T19:47:36.872Z,61.90
2018-08-11T19:50:05.708Z,62.10
2018-08-11T19:52:34.207Z,62.50
2018-08-11T19:55:02.672Z,63.50
2018-08-11T19:57:31.115Z,62.80
2018-08-11T19:59:59.539Z,62.80
2018-08-11T20:02:28.051Z,63.10
2018-08-11T20:04:56.498Z,63.30
2018-08-11T20:07:24.951Z,63.60
2018-08-11T20:09:53.395Z,63.80
2018-08-11T20:12:21.828Z,64.10
2018-08-11T20:14:50.309Z,64.20
2018-08-11T20:17:18.747Z,64.10
2018-08-11T20:19:47.188Z,64.10
2018-08-11T20:22:17.688Z,64.20
2018-08-11T20:24:46.372Z,64.40
2018-08-11T20:27:15.453Z,64.60
2018-08-11T20:29:43.919Z,65.00
2018-08-11T20:32:13.725Z,65.10
2018-08-11T20:34:42.766Z,64.80
2018-08-11T20:37:12.050Z,64.60
2018-08-11T20:39:40.818Z,64.60
2018-08-11T20:42:09.522Z,64.60
2018-08-11T20:44:38.086Z,64.60
2018-08-11T20:47:06.622Z,64.70
2018-08-11T20:49:35.115Z,65.10
2018-08-11T20:52:03.631Z,65.30
2018-08-11T20:54:32.095Z,65.30
2018-08-11T20:57:00.564Z,65.20
2018-08-11T20:59:29.063Z,65.00
2018-08-11T21:01:57.531Z,65.40
2018-08-11T21:04:26.019Z,65.10
2018-08-11T21:06:54.418Z,65.40
2018-08-11T21:09:22.875Z,65.50
2018-08-11T21:11:54.163Z,65.80
2018-08-11T21:14:22.720Z,66.00
2018-08-11T21:16:51.155Z,66.20
2018-08-11T21:19:19.590Z,66.20
2018-08-11T21:21:48.026Z,66.30
2018-08-11T21:24:16.501Z,66.50
2018-08-11T21:26:44.959Z,66.50
2018-08-11T21:29:13.403Z,66.50
2018-08-11T21:31:41.882Z,66.60
2018-08-11T21:34:10.427Z,66.50
2018-08-11T21:36:38.863Z,66.60
2018-08-11T21:39:12.128Z,66.60
2018-08-11T21:41:40.563Z,66.70
2018-08-11T21:44:09.115Z,66.50
2018-08-11T21:46:38.042Z,66.30
2018-08-11T21:49:07.294Z,66.20
2018-08-11T21:51:35.784Z,66.20
2018-08-11T21:54:04.339Z,66.40
2018-08-11T21:56:32.845Z,66.40
2018-08-11T21:59:01.239Z,66.30
2018-08-11T22:01:29.683Z,66.30
2018-08-11T22:03:58.235Z,66.30
2018-08-11T22:06:26.785Z,66.60
2018-08-11T22:08:55.264Z,66.80
2018-08-11T22:11:23.717Z,67.10
2018-08-11T22:13:52.223Z,67.30
2018-08-11T22:16:20.656Z,67.50
2018-08-11T22:18:49.103Z,67.60
2018-08-11T22:21:17.563Z,67.70
2018-08-11T22:23:46.044Z,67.60
2018-08-11T22:26:14.520Z,67.50
2018-08-11T22:28:42.950Z,67.60
2018-08-11T22:31:11.374Z,67.70
2018-08-11T22:33:39.912Z,67.60
2018-08-11T22:36:08.386Z,67.60
2018-08-11T22:38:36.841Z,67.70
2018-08-11T22:41:05.294Z,67.80
2018-08-11T22:43:33.780Z,67.90
2018-08-11T22:46:02.656Z,68.00
2018-08-11T22:48:31.089Z,68.20
2018-08-11T22:50:59.518Z,68.20
2018-08-11T22:53:28.028Z,68.20
2018-08-11T22:55:56.529Z,68.80
2018-08-11T22:58:25.096Z,68.00
2018-08-11T23:00:53.619Z,68.20
2018-08-11T23:03:22.180Z,68.40
2018-08-11T23:05:50.628Z,68.50
2018-08-11T23:08:19.070Z,68.80
2018-08-11T23:10:47.535Z,68.70
2018-08-11T23:13:16.085Z,68.80
2018-08-11T23:15:44.510Z,69.10
2018-08-11T23:18:12.923Z,69.50
2018-08-11T23:20:41.372Z,69.30
2018-08-11T23:23:09.869Z,69.30
2018-08-11T23:25:38.347Z,69.20
2018-08-11T23:28:06.808Z,69.20
2018-08-11T23:30:35.254Z,69.30
2018-08-11T23:33:03.709Z,69.10
2018-08-11T23:35:32.162Z,69.60
2018-08-11T23:38:00.654Z,70.00
2018-08-11T23:40:29.071Z,70.20
2018-08-11T23:42:57.531Z,70.20
2018-08-11T23:45:25.971Z,69.70
2018-08-11T23:47:54.410Z,69.70
2018-08-11T23:50:22.854Z,70.30
2018-08-11T23:52:51.361Z,69.60
2018-08-11T23:55:19.787Z,69.30
2018-08-11T23:57:48.211Z,69.20
